createdAt,value
2022-12-31T00:00:36.425Z,13.67
2022-12-31T00:03:04.751Z,13.88
2022-12-31T00:05:33.446Z,13.49
2022-12-31T00:08:01.850Z,13.64
2022-12-31T00:10:30.252Z,13.61
2022-12-31T00:12:58.304Z,13.83
2022-12-31T00:15:28.738Z,13.82
2022-12-31T00:17:58.124Z,13.71
2022-12-31T00:20:26.152Z,13.70
2022-12-31T00:22:54.270Z,13.84
2022-12-31T00:25:22.380Z,13.83
2022-12-31T00:27:50.381Z,14.02
2022-12-31T00:30:18.367Z,14.02
2022-12-31T00:32:46.332Z,14.15
2022-12-31T00:35:15.721Z,14.25
2022-12-31T00:37:43.733Z,14.27
2022-12-31T00:40:12.301Z,14.23
2022-12-31T00:42:40.256Z,14.24
2022-12-31T00:45:08.885Z,14.23
2022-12-31T00:47:36.895Z,14.32
2022-12-31T00:50:05.285Z,14.35
2022-12-31T00:52:34.737Z,14.47
2022-12-31T00:55:02.804Z,14.52
2022-12-31T00:57:33.451Z,14.41
2022-12-31T01:00:01.492Z,14.69
2022-12-31T01:02:29.817Z,14.62
2022-12-31T01:04:58.318Z,14.60
2022-12-31T01:07:26.388Z,14.55
2022-12-31T01:09:55.785Z,14.66
2022-12-31T01:12:25.342Z,14.56
2022-12-31T01:14:53.400Z,14.52
2022-12-31T01:17:21.436Z,14.46
2022-12-31T01:19:51.534Z,14.50
2022-12-31T01:22:19.597Z,14.58
2022-12-31T01:24:47.549Z,14.67
2022-12-31T01:27:16.866Z,14.88
2022-12-31T01:29:44.904Z,14.93
2022-12-31T01:32:12.990Z,14.99
2022-12-31T01:34:41.430Z,15.00
2022-12-31T01:37:09.494Z,15.16
2022-12-31T01:39:37.550Z,15.17
2022-12-31T01:42:05.847Z,15.15
2022-12-31T01:44:48.599Z,15.24
2022-12-31T01:47:18.247Z,15.06
2022-12-31T01:49:49.016Z,15.14
2022-12-31T01:52:20.506Z,14.97
2022-12-31T01:54:50.548Z,15.05
2022-12-31T01:57:18.722Z,14.97
2022-12-31T01:59:48.144Z,15.15
2022-12-31T02:02:16.804Z,15.13
2022-12-31T02:04:44.873Z,14.87
2022-12-31T02:07:13.053Z,15.33
2022-12-31T02:09:42.812Z,15.19
2022-12-31T02:12:11.371Z,15.29
2022-12-31T02:14:41.264Z,15.05
2022-12-31T02:17:16.009Z,15.38
2022-12-31T02:19:56.692Z,15.21
2022-12-31T02:22:35.345Z,15.61
2022-12-31T02:25:13.735Z,15.64
2022-12-31T02:27:48.341Z,15.50
2022-12-31T02:30:18.687Z,15.80
2022-12-31T02:32:54.646Z,15.70
2022-12-31T02:35:25.739Z,15.64
2022-12-31T02:37:56.687Z,15.69
2022-12-31T02:40:25.300Z,15.64
2022-12-31T02:42:55.518Z,15.80
2022-12-31T02:45:30.066Z,15.79
2022-12-31T02:48:06.284Z,15.64
2022-12-31T02:50:40.421Z,15.53
2022-12-31T02:53:21.217Z,15.36
2022-12-31T02:55:56.446Z,15.15
2022-12-31T02:58:51.494Z,15.10
2022-12-31T03:01:43.914Z,15.08
2022-12-31T03:04:42.542Z,14.93
2022-12-31T03:07:14.691Z,15.06
2022-12-31T03:09:42.707Z,15.00
2022-12-31T03:12:29.379Z,15.15
2022-12-31T03:14:57.439Z,15.16
2022-12-31T03:17:27.211Z,15.08
2022-12-31T03:20:12.968Z,15.23
2022-12-31T03:22:43.193Z,15.10
2022-12-31T03:25:30.372Z,15.05
2022-12-31T03:27:58.392Z,14.82
2022-12-31T03:30:26.908Z,15.07
2022-12-31T03:32:58.645Z,14.64
2022-12-31T03:35:27.391Z,14.67
2022-12-31T03:37:55.459Z,14.70
2022-12-31T03:40:25.132Z,14.64
2022-12-31T03:42:53.264Z,14.55
2022-12-31T03:45:21.683Z,14.83
2022-12-31T03:47:49.764Z,14.79
2022-12-31T03:50:20.130Z,14.92
2022-12-31T03:52:48.864Z,14.90
2022-12-31T03:55:16.870Z,14.84
2022-12-31T03:57:44.924Z,14.81
2022-12-31T04:00:14.303Z,14.70
2022-12-31T04:02:42.390Z,14.74
2022-12-31T04:05:11.144Z,14.71
2022-12-31T04:07:40.763Z,14.80
2022-12-31T04:10:10.822Z,14.67
2022-12-31T04:12:38.927Z,14.76
2022-12-31T04:15:08.409Z,14.78
2022-12-31T04:17:36.524Z,14.74
2022-12-31T04:20:04.739Z,14.98
2022-12-31T04:22:32.771Z,14.74
2022-12-31T04:25:02.101Z,14.97
2022-12-31T04:27:31.270Z,14.76
2022-12-31T04:29:59.367Z,14.70
2022-12-31T04:32:27.400Z,14.71
2022-12-31T04:34:55.696Z,14.64
2022-12-31T04:37:23.692Z,14.59
2022-12-31T04:39:51.863Z,14.86
2022-12-31T04:42:21.196Z,14.64
2022-12-31T04:44:49.126Z,14.76
2022-12-31T04:47:21.833Z,14.88
2022-12-31T04:49:51.779Z,14.98
2022-12-31T04:52:19.912Z,14.94
2022-12-31T04:54:47.992Z,15.02
2022-12-31T04:57:16.029Z,14.92
2022-12-31T04:59:45.386Z,15.23
2022-12-31T05:02:13.629Z,15.11
2022-12-31T05:04:41.812Z,15.06
2022-12-31T05:07:11.888Z,15.19
2022-12-31T05:09:41.988Z,15.26
2022-12-31T05:12:10.000Z,15.30
2022-12-31T05:14:38.070Z,15.28
2022-12-31T05:17:07.409Z,15.36
2022-12-31T05:19:35.561Z,15.36
2022-12-31T05:22:20.871Z,15.54
2022-12-31T05:24:51.835Z,15.41
2022-12-31T05:27:19.868Z,15.51
2022-12-31T05:29:47.851Z,15.44
2022-12-31T05:32:17.522Z,15.40
2022-12-31T05:34:45.675Z,15.47
2022-12-31T05:37:13.681Z,15.46
2022-12-31T05:39:41.735Z,15.65
2022-12-31T05:42:09.739Z,15.47
2022-12-31T05:44:37.775Z,15.67
2022-12-31T05:47:05.915Z,15.71
2022-12-31T05:49:35.309Z,15.88
2022-12-31T05:52:03.428Z,15.80
2022-12-31T05:54:31.511Z,15.81
2022-12-31T05:56:59.668Z,15.85
2022-12-31T05:59:27.730Z,16.01
2022-12-31T06:01:55.675Z,15.96
2022-12-31T06:04:24.073Z,16.03
2022-12-31T06:06:53.472Z,15.81
2022-12-31T06:09:23.979Z,15.82
2022-12-31T06:11:51.984Z,16.08
2022-12-31T06:14:19.970Z,15.97
2022-12-31T06:16:48.016Z,15.88
2022-12-31T06:19:16.063Z,15.95
2022-12-31T06:21:44.087Z,15.99
2022-12-31T06:24:13.661Z,15.96
2022-12-31T06:26:43.753Z,16.16
2022-12-31T06:29:11.799Z,15.88
2022-12-31T06:31:39.872Z,15.92
2022-12-31T06:34:07.888Z,16.06
2022-12-31T06:36:35.913Z,15.88
2022-12-31T06:39:03.955Z,15.92
2022-12-31T06:41:33.368Z,15.86
2022-12-31T06:44:01.387Z,15.74
2022-12-31T06:46:29.483Z,15.84
2022-12-31T06:48:59.107Z,15.84
2022-12-31T06:51:27.150Z,15.69
2022-12-31T06:53:55.177Z,15.82
2022-12-31T06:56:31.281Z,15.75
2022-12-31T06:59:04.267Z,15.64
2022-12-31T07:01:41.940Z,15.73
2022-12-31T07:04:26.890Z,15.78
2022-12-31T07:06:57.757Z,15.78
2022-12-31T07:09:33.243Z,15.89
2022-12-31T07:12:05.023Z,15.95
2022-12-31T07:14:37.040Z,15.94
2022-12-31T07:17:12.453Z,15.81
2022-12-31T07:19:45.637Z,15.70
2022-12-31T07:22:15.598Z,15.93
2022-12-31T07:24:44.431Z,15.73
2022-12-31T07:27:29.999Z,15.90
2022-12-31T07:30:03.203Z,15.81
2022-12-31T07:32:49.165Z,16.07
2022-12-31T07:35:22.570Z,16.07
2022-12-31T07:37:56.535Z,16.02
2022-12-31T07:40:28.927Z,15.94
2022-12-31T07:43:03.209Z,15.64
2022-12-31T07:45:34.913Z,15.85
2022-12-31T07:48:03.345Z,15.96
2022-12-31T07:50:31.780Z,15.84
2022-12-31T07:53:00.108Z,15.71
2022-12-31T07:55:28.153Z,15.89
2022-12-31T07:57:58.478Z,16.03
2022-12-31T08:00:26.941Z,16.10
2022-12-31T08:03:11.477Z,16.05
2022-12-31T08:05:45.181Z,16.17
2022-12-31T08:08:19.425Z,16.34
2022-12-31T08:11:01.684Z,16.31
2022-12-31T08:13:29.789Z,16.57
2022-12-31T08:15:58.160Z,16.47
2022-12-31T08:18:27.875Z,16.57
2022-12-31T08:20:59.761Z,16.47
2022-12-31T08:23:33.652Z,16.38
2022-12-31T08:26:07.662Z,16.34
2022-12-31T08:28:47.760Z,16.49
2022-12-31T08:31:18.192Z,16.36
2022-12-31T08:33:51.421Z,16.57
2022-12-31T08:36:24.301Z,16.38
2022-12-31T08:38:56.126Z,16.46
2022-12-31T08:41:29.144Z,16.51
2022-12-31T08:44:01.597Z,16.56
2022-12-31T08:46:32.720Z,16.52
2022-12-31T08:49:03.325Z,16.61
2022-12-31T08:51:31.556Z,16.57
2022-12-31T08:53:59.903Z,16.57
2022-12-31T08:56:31.767Z,16.66
2022-12-31T08:59:13.638Z,16.57
2022-12-31T09:01:51.367Z,16.46
2022-12-31T09:04:26.806Z,16.58
2022-12-31T09:06:57.621Z,16.48
2022-12-31T09:09:33.791Z,16.60
2022-12-31T09:12:09.590Z,16.95
2022-12-31T09:14:45.159Z,16.95
2022-12-31T09:17:25.634Z,16.94
2022-12-31T09:19:55.435Z,17.05
2022-12-31T09:22:24.716Z,16.82
2022-12-31T09:24:52.876Z,17.06
2022-12-31T09:27:27.546Z,17.08
2022-12-31T09:30:01.897Z,17.01
2022-12-31T09:32:35.114Z,17.08
2022-12-31T09:35:07.838Z,17.14
2022-12-31T09:37:39.328Z,17.04
2022-12-31T09:40:16.038Z,17.18
2022-12-31T09:42:58.680Z,17.12
2022-12-31T09:45:50.635Z,17.11
2022-12-31T09:48:51.704Z,17.39
2022-12-31T09:51:27.628Z,17.71
2022-12-31T09:54:19.888Z,17.45
2022-12-31T09:56:57.151Z,17.75
2022-12-31T09:59:31.160Z,17.58
2022-12-31T10:02:03.456Z,18.00
2022-12-31T10:04:41.072Z,17.94
2022-12-31T10:07:20.081Z,17.68
2022-12-31T10:09:56.591Z,17.85
2022-12-31T10:12:37.741Z,17.76
2022-12-31T10:15:35.824Z,17.81
2022-12-31T10:18:11.544Z,17.93
2022-12-31T10:20:50.647Z,17.87
2022-12-31T10:23:25.480Z,18.08
2022-12-31T10:26:04.520Z,18.07
2022-12-31T10:28:39.398Z,18.15
2022-12-31T10:31:14.465Z,18.02
2022-12-31T10:33:53.394Z,18.22
2022-12-31T10:36:28.281Z,18.07
2022-12-31T10:39:14.378Z,18.15
2022-12-31T10:42:09.665Z,18.16
2022-12-31T10:44:55.944Z,18.50
2022-12-31T10:47:42.593Z,18.68
2022-12-31T10:50:40.863Z,18.54
2022-12-31T10:53:28.346Z,18.59
2022-12-31T10:56:11.343Z,18.60
2022-12-31T10:59:08.827Z,18.58
2022-12-31T11:01:47.630Z,18.58
2022-12-31T11:04:36.700Z,18.78
2022-12-31T11:07:25.806Z,18.66
2022-12-31T11:10:13.189Z,18.79
2022-12-31T11:12:56.129Z,18.72
2022-12-31T11:15:33.737Z,18.69
2022-12-31T11:18:08.032Z,18.82
2022-12-31T11:20:43.872Z,18.81
2022-12-31T11:23:24.880Z,18.85
2022-12-31T11:26:02.653Z,19.07
2022-12-31T11:28:45.999Z,19.00
2022-12-31T11:31:24.465Z,19.23
2022-12-31T11:34:02.581Z,19.51
2022-12-31T11:36:37.493Z,19.11
2022-12-31T11:39:23.423Z,19.37
2022-12-31T11:41:58.481Z,19.49
2022-12-31T11:44:33.638Z,19.39
2022-12-31T11:47:07.795Z,19.48
2022-12-31T11:49:42.419Z,19.45
2022-12-31T11:52:31.711Z,19.60
2022-12-31T11:55:06.962Z,19.39
2022-12-31T11:57:35.959Z,19.76
2022-12-31T12:00:08.634Z,19.81
2022-12-31T12:02:44.208Z,19.32
2022-12-31T12:05:16.274Z,19.86
2022-12-31T12:07:44.943Z,19.98
2022-12-31T12:10:20.479Z,19.76
2022-12-31T12:12:48.825Z,19.63
2022-12-31T12:15:19.209Z,19.90
2022-12-31T12:17:50.546Z,19.90
2022-12-31T12:20:22.463Z,19.69
2022-12-31T12:22:51.417Z,19.65
2022-12-31T12:25:20.463Z,19.77
2022-12-31T12:27:48.581Z,18.51
2022-12-31T12:30:20.383Z,18.61
2022-12-31T12:32:55.401Z,18.50
2022-12-31T12:35:30.069Z,18.57
2022-12-31T12:38:02.904Z,18.50
2022-12-31T12:40:34.354Z,18.31
2022-12-31T12:43:03.471Z,18.23
2022-12-31T12:45:39.178Z,18.56
2022-12-31T12:48:10.044Z,18.26
2022-12-31T12:50:40.834Z,17.98
2022-12-31T12:53:26.005Z,18.02
2022-12-31T12:55:58.857Z,18.16
2022-12-31T12:58:34.989Z,17.96
2022-12-31T13:01:06.411Z,18.06
2022-12-31T13:04:23.422Z,17.87
2022-12-31T13:06:47.615Z,17.95
2022-12-31T13:09:24.997Z,18.01
2022-12-31T13:12:07.049Z,18.00
2022-12-31T13:14:41.159Z,17.97
2022-12-31T13:17:16.385Z,18.08
2022-12-31T13:19:49.177Z,18.05
2022-12-31T13:22:23.910Z,18.14
2022-12-31T13:24:56.731Z,18.09
2022-12-31T13:27:29.469Z,17.84
2022-12-31T13:30:01.590Z,17.93
2022-12-31T13:32:36.551Z,17.76
2022-12-31T13:35:07.467Z,17.92
2022-12-31T13:37:40.441Z,17.98
2022-12-31T13:40:18.905Z,17.72
2022-12-31T13:42:52.425Z,17.84
2022-12-31T13:45:25.910Z,17.77
2022-12-31T13:47:59.657Z,17.99
2022-12-31T13:50:33.566Z,17.80
2022-12-31T13:53:05.987Z,17.91
2022-12-31T13:55:35.326Z,17.67
2022-12-31T13:58:06.774Z,17.79
2022-12-31T14:00:38.156Z,17.53
2022-12-31T14:03:10.715Z,17.74
2022-12-31T14:05:42.884Z,17.66
2022-12-31T14:08:12.338Z,17.75
2022-12-31T14:10:49.730Z,17.68
2022-12-31T14:13:27.871Z,17.45
2022-12-31T14:16:05.394Z,17.39
2022-12-31T14:18:37.374Z,17.38
2022-12-31T14:21:09.771Z,17.55
2022-12-31T14:23:43.893Z,17.47
2022-12-31T14:26:18.273Z,17.45
2022-12-31T14:28:49.037Z,17.21
2022-12-31T14:31:25.382Z,17.23
2022-12-31T14:33:57.618Z,17.37
2022-12-31T14:36:34.209Z,17.33
2022-12-31T14:39:11.000Z,17.32
2022-12-31T14:41:44.424Z,17.05
2022-12-31T14:44:24.639Z,17.18
2022-12-31T14:47:00.424Z,16.93
2022-12-31T14:49:35.380Z,17.01
2022-12-31T14:52:20.423Z,16.97
2022-12-31T14:54:58.093Z,16.90
2022-12-31T14:57:27.784Z,16.79
2022-12-31T14:59:57.766Z,16.63
2022-12-31T15:02:29.181Z,16.72
2022-12-31T15:05:15.667Z,16.74
2022-12-31T15:07:51.772Z,16.80
2022-12-31T15:10:28.326Z,16.76
2022-12-31T15:13:03.193Z,16.79
2022-12-31T15:15:37.524Z,16.55
2022-12-31T15:18:12.422Z,16.55
2022-12-31T15:20:58.273Z,16.84
2022-12-31T15:23:37.002Z,17.01
2022-12-31T15:26:08.427Z,16.65
2022-12-31T15:28:37.758Z,16.65
2022-12-31T15:31:18.523Z,16.61
2022-12-31T15:33:58.446Z,16.50
2022-12-31T15:36:29.983Z,16.35
2022-12-31T15:39:07.253Z,16.59
2022-12-31T15:42:10.339Z,16.31
2022-12-31T15:44:36.999Z,16.25
2022-12-31T15:47:11.687Z,16.44
2022-12-31T15:49:42.400Z,16.44
2022-12-31T15:52:14.633Z,16.33
2022-12-31T15:54:46.649Z,16.23
2022-12-31T15:57:18.194Z,16.31
2022-12-31T15:59:46.701Z,16.21
2022-12-31T16:02:19.985Z,16.24
2022-12-31T16:04:48.381Z,16.11
2022-12-31T16:07:16.724Z,16.11
2022-12-31T16:09:48.564Z,16.07
2022-12-31T16:12:21.660Z,16.14
2022-12-31T16:14:51.630Z,16.12
2022-12-31T16:17:26.166Z,16.09
2022-12-31T16:19:54.268Z,15.97
2022-12-31T16:22:26.079Z,16.01
2022-12-31T16:25:28.922Z,15.92
2022-12-31T16:27:43.817Z,15.80
2022-12-31T16:30:20.058Z,16.01
2022-12-31T16:32:51.083Z,15.89
2022-12-31T16:35:24.161Z,15.92
2022-12-31T16:38:02.225Z,16.15
2022-12-31T16:40:30.762Z,16.04
2022-12-31T16:43:00.127Z,15.98
2022-12-31T16:45:32.990Z,16.17
2022-12-31T16:48:14.564Z,15.91
2022-12-31T16:50:45.386Z,16.06
2022-12-31T16:53:17.481Z,15.97
2022-12-31T16:55:52.681Z,16.04
2022-12-31T16:58:25.446Z,16.22
2022-12-31T17:00:53.830Z,15.93
2022-12-31T17:03:23.347Z,16.13
2022-12-31T17:05:55.982Z,16.04
2022-12-31T17:08:25.608Z,15.88
2022-12-31T17:10:54.068Z,15.54
2022-12-31T17:13:27.963Z,15.75
2022-12-31T17:16:00.248Z,15.30
2022-12-31T17:18:31.504Z,14.94
2022-12-31T17:21:06.779Z,15.07
2022-12-31T17:23:39.551Z,14.71
2022-12-31T17:26:09.959Z,14.72
2022-12-31T17:28:44.663Z,14.52
2022-12-31T17:31:29.819Z,14.50
2022-12-31T17:34:06.225Z,14.51
2022-12-31T17:36:34.439Z,14.47
2022-12-31T17:39:11.691Z,14.52
2022-12-31T17:41:39.833Z,14.54
2022-12-31T17:44:16.737Z,14.45
2022-12-31T17:46:45.249Z,14.22
2022-12-31T17:49:15.953Z,14.51
2022-12-31T17:51:47.787Z,14.36
2022-12-31T17:54:16.404Z,14.25
2022-12-31T17:56:44.867Z,14.28
2022-12-31T17:59:16.615Z,14.46
2022-12-31T18:01:44.938Z,14.17
2022-12-31T18:04:13.692Z,14.22
2022-12-31T18:06:41.845Z,14.07
2022-12-31T18:09:10.209Z,13.86
2022-12-31T18:11:39.113Z,13.87
2022-12-31T18:14:07.471Z,13.91
2022-12-31T18:16:36.828Z,13.81
2022-12-31T18:19:08.586Z,13.66
2022-12-31T18:21:39.041Z,13.59
2022-12-31T18:24:12.642Z,13.77
2022-12-31T18:26:40.670Z,13.78
2022-12-31T18:29:14.495Z,13.27
2022-12-31T18:31:45.028Z,13.30
2022-12-31T18:34:14.038Z,13.45
2022-12-31T18:36:42.222Z,13.32
2022-12-31T18:39:12.571Z,13.40
2022-12-31T18:41:42.125Z,13.48
2022-12-31T18:44:11.407Z,13.53
2022-12-31T18:46:39.415Z,13.22
2022-12-31T18:49:09.071Z,13.26
2022-12-31T18:51:37.150Z,13.52
2022-12-31T18:54:05.681Z,13.22
2022-12-31T18:56:33.708Z,13.06
2022-12-31T18:59:02.517Z,13.10
2022-12-31T19:01:31.887Z,13.28
2022-12-31T19:04:01.133Z,13.38
2022-12-31T19:06:30.988Z,12.89
2022-12-31T19:09:00.836Z,13.09
2022-12-31T19:11:29.382Z,12.91
2022-12-31T19:13:57.387Z,13.37
2022-12-31T19:16:25.575Z,12.82
2022-12-31T19:18:53.661Z,12.73
2022-12-31T19:21:22.654Z,13.12
2022-12-31T19:23:52.291Z,12.89
2022-12-31T19:26:21.740Z,12.76
2022-12-31T19:28:52.085Z,12.92
2022-12-31T19:31:22.461Z,13.31
2022-12-31T19:33:50.467Z,12.86
2022-12-31T19:36:19.699Z,12.86
2022-12-31T19:38:48.191Z,12.71
2022-12-31T19:41:18.887Z,12.89
2022-12-31T19:43:47.574Z,12.74
2022-12-31T19:46:16.721Z,12.83
2022-12-31T19:48:45.178Z,12.76
2022-12-31T19:51:16.067Z,12.86
2022-12-31T19:53:44.863Z,12.76
2022-12-31T19:56:13.674Z,12.71
2022-12-31T19:58:43.184Z,12.59
2022-12-31T20:01:18.394Z,12.91
2022-12-31T20:03:46.534Z,12.73
2022-12-31T20:06:15.091Z,12.64
2022-12-31T20:08:44.237Z,12.63
2022-12-31T20:11:13.818Z,12.76
2022-12-31T20:13:43.298Z,12.60
2022-12-31T20:16:12.884Z,12.61
2022-12-31T20:18:42.086Z,12.79
2022-12-31T20:21:11.161Z,12.70
2022-12-31T20:23:39.172Z,12.70
2022-12-31T20:26:07.316Z,12.59
2022-12-31T20:28:36.626Z,12.80
2022-12-31T20:31:07.755Z,12.58
2022-12-31T20:33:35.938Z,12.78
2022-12-31T20:36:04.210Z,12.56
2022-12-31T20:38:32.537Z,12.56
2022-12-31T20:41:03.766Z,12.48
2022-12-31T20:43:32.472Z,12.74
2022-12-31T20:46:01.096Z,12.64
2022-12-31T20:48:32.176Z,12.57
2022-12-31T20:51:00.171Z,12.88
2022-12-31T20:53:28.352Z,12.70
2022-12-31T20:55:58.697Z,12.74
2022-12-31T20:58:26.833Z,12.58
2022-12-31T21:00:54.875Z,13.01
2022-12-31T21:04:03.004Z,13.06
2022-12-31T21:06:12.771Z,12.93
2022-12-31T21:08:40.804Z,12.65
2022-12-31T21:11:29.596Z,12.48
2022-12-31T21:13:57.321Z,12.50
2022-12-31T21:16:28.164Z,12.66
2022-12-31T21:18:58.747Z,12.60
2022-12-31T21:21:28.488Z,12.41
2022-12-31T21:23:56.539Z,12.12
2022-12-31T21:26:24.605Z,12.17
2022-12-31T21:28:53.631Z,12.38
2022-12-31T21:31:24.075Z,12.09
2022-12-31T21:33:52.268Z,12.17
2022-12-31T21:36:20.385Z,12.05
2022-12-31T21:38:49.767Z,12.04
2022-12-31T21:41:35.379Z,11.98
2022-12-31T21:44:03.621Z,11.99
2022-12-31T21:46:32.001Z,12.03
2022-12-31T21:49:01.329Z,12.08
2022-12-31T21:51:29.786Z,11.95
2022-12-31T21:54:01.795Z,11.94
2022-12-31T21:56:28.906Z,12.05
2022-12-31T22:02:59.099Z,11.85
2022-12-31T22:05:27.882Z,11.91
2022-12-31T22:07:58.435Z,11.98
2022-12-31T22:10:26.547Z,12.13
2022-12-31T22:12:54.608Z,11.74
2022-12-31T22:15:22.684Z,12.15
2022-12-31T22:17:52.145Z,12.03
2022-12-31T22:20:29.353Z,12.14
2022-12-31T22:22:57.593Z,12.08
2022-12-31T22:25:25.664Z,11.79
2022-12-31T22:28:27.623Z,11.82
2022-12-31T22:30:41.858Z,11.75
2022-12-31T22:33:11.245Z,11.99
2022-12-31T22:35:39.285Z,12.13
2022-12-31T22:38:11.916Z,12.28
2022-12-31T22:40:40.489Z,12.33
2022-12-31T22:43:08.540Z,12.44
2022-12-31T22:45:37.200Z,12.33
2022-12-31T22:48:05.546Z,12.19
2022-12-31T22:50:36.893Z,12.52
2022-12-31T22:53:04.943Z,12.42
2022-12-31T22:55:33.020Z,12.05
2022-12-31T22:58:01.066Z,12.14
2022-12-31T23:00:37.889Z,12.14
2022-12-31T23:03:06.010Z,12.25
2022-12-31T23:05:34.872Z,12.47
2022-12-31T23:08:12.838Z,12.46
2022-12-31T23:11:00.955Z,12.38
2022-12-31T23:13:50.485Z,12.55
2022-12-31T23:16:36.496Z,12.68
2022-12-31T23:19:22.301Z,12.33
2022-12-31T23:22:10.695Z,12.56
2022-12-31T23:24:40.367Z,12.47
2022-12-31T23:27:09.088Z,12.38
2022-12-31T23:29:45.614Z,12.34
2022-12-31T23:32:14.621Z,12.28
2022-12-31T23:34:43.522Z,12.18
2022-12-31T23:37:11.692Z,12.49
2022-12-31T23:39:41.312Z,12.55
2022-12-31T23:42:09.700Z,12.66
2022-12-31T23:44:37.675Z,12.92
2022-12-31T23:47:05.833Z,12.59
2022-12-31T23:49:33.794Z,12.64
2022-12-31T23:52:01.878Z,12.88
2022-12-31T23:54:29.933Z,12.37
2022-12-31T23:56:59.305Z,12.22
2022-12-31T23:59:27.374Z,12.13
